sensor_id;sensor_type;location;lat;lon;timestamp;P1;durP1;ratioP1;P2;durP2;ratioP2
28431;SDS011;15664;51.302;7.744;2023-03-24T00:00:40;7.15;;;2.40;;
28431;SDS011;15664;51.302;7.744;2023-03-24T00:03:06;6.07;;;2.30;;
28431;SDS011;15664;51.302;7.744;2023-03-24T00:05:32;4.88;;;2.38;;
28431;SDS011;15664;51.302;7.744;2023-03-24T00:07:57;5.43;;;2.20;;
28431;SDS011;15664;51.302;7.744;2023-03-24T00:10:27;6.45;;;2.63;;
28431;SDS011;15664;51.302;7.744;2023-03-24T00:12:54;6.53;;;2.13;;
28431;SDS011;15664;51.302;7.744;2023-03-24T00:15:22;6.47;;;2.60;;
28431;SDS011;15664;51.302;7.744;2023-03-24T00:17:49;6.23;;;2.20;;
28431;SDS011;15664;51.302;7.744;2023-03-24T00:20:16;4.93;;;2.22;;
28431;SDS011;15664;51.302;7.744;2023-03-24T00:22:45;6.72;;;2.30;;
28431;SDS011;15664;51.302;7.744;2023-03-24T00:25:23;8.38;;;2.70;;
28431;SDS011;15664;51.302;7.744;2023-03-24T00:27:54;5.32;;;2.15;;
28431;SDS011;15664;51.302;7.744;2023-03-24T00:30:21;7.40;;;2.40;;
28431;SDS011;15664;51.302;7.744;2023-03-24T00:32:49;5.28;;;2.17;;
28431;SDS011;15664;51.302;7.744;2023-03-24T00:35:16;6.10;;;2.35;;
28431;SDS011;15664;51.302;7.744;2023-03-24T00:37:43;7.43;;;2.25;;
28431;SDS011;15664;51.302;7.744;2023-03-24T00:40:10;4.75;;;1.92;;
28431;SDS011;15664;51.302;7.744;2023-03-24T00:42:41;6.10;;;2.60;;
28431;SDS011;15664;51.302;7.744;2023-03-24T00:45:11;5.45;;;2.42;;
28431;SDS011;15664;51.302;7.744;2023-03-24T00:47:39;7.28;;;2.47;;
28431;SDS011;15664;51.302;7.744;2023-03-24T00:50:05;6.10;;;2.50;;
28431;SDS011;15664;51.302;7.744;2023-03-24T00:52:36;6.53;;;2.58;;
28431;SDS011;15664;51.302;7.744;2023-03-24T00:55:09;4.95;;;2.17;;
28431;SDS011;15664;51.302;7.744;2023-03-24T00:57:40;6.28;;;2.40;;
28431;SDS011;15664;51.302;7.744;2023-03-24T01:00:14;7.00;;;3.08;;
28431;SDS011;15664;51.302;7.744;2023-03-24T01:02:47;4.43;;;2.10;;
28431;SDS011;15664;51.302;7.744;2023-03-24T01:05:18;7.22;;;2.42;;
28431;SDS011;15664;51.302;7.744;2023-03-24T01:07:45;5.30;;;2.00;;
28431;SDS011;15664;51.302;7.744;2023-03-24T01:10:16;5.07;;;2.15;;
28431;SDS011;15664;51.302;7.744;2023-03-24T01:12:46;5.85;;;2.35;;
28431;SDS011;15664;51.302;7.744;2023-03-24T01:15:13;7.10;;;2.37;;
28431;SDS011;15664;51.302;7.744;2023-03-24T01:17:40;6.53;;;2.20;;
28431;SDS011;15664;51.302;7.744;2023-03-24T01:20:06;6.53;;;2.20;;
28431;SDS011;15664;51.302;7.744;2023-03-24T01:22:36;7.93;;;2.43;;
28431;SDS011;15664;51.302;7.744;2023-03-24T01:25:04;5.07;;;2.60;;
28431;SDS011;15664;51.302;7.744;2023-03-24T01:27:31;5.82;;;2.47;;
28431;SDS011;15664;51.302;7.744;2023-03-24T01:30:00;5.10;;;2.60;;
28431;SDS011;15664;51.302;7.744;2023-03-24T01:32:27;5.93;;;2.40;;
28431;SDS011;15664;51.302;7.744;2023-03-24T01:34:53;6.40;;;2.63;;
28431;SDS011;15664;51.302;7.744;2023-03-24T01:37:19;7.15;;;2.60;;
28431;SDS011;15664;51.302;7.744;2023-03-24T01:39:44;5.57;;;2.30;;
28431;SDS011;15664;51.302;7.744;2023-03-24T01:42:12;7.05;;;2.75;;
28431;SDS011;15664;51.302;7.744;2023-03-24T01:44:44;6.50;;;2.63;;
28431;SDS011;15664;51.302;7.744;2023-03-24T01:47:11;7.90;;;2.72;;
28431;SDS011;15664;51.302;7.744;2023-03-24T01:49:40;5.00;;;2.47;;
28431;SDS011;15664;51.302;7.744;2023-03-24T01:52:13;8.45;;;3.25;;
28431;SDS011;15664;51.302;7.744;2023-03-24T01:54:44;6.18;;;2.92;;
28431;SDS011;15664;51.302;7.744;2023-03-24T01:57:16;6.22;;;2.92;;
28431;SDS011;15664;51.302;7.744;2023-03-24T01:59:54;7.18;;;2.83;;
28431;SDS011;15664;51.302;7.744;2023-03-24T02:03:03;8.70;;;3.03;;
28431;SDS011;15664;51.302;7.744;2023-03-24T02:05:41;8.23;;;3.22;;
28431;SDS011;15664;51.302;7.744;2023-03-24T02:10:54;7.43;;;3.20;;
28431;SDS011;15664;51.302;7.744;2023-03-24T02:13:23;6.72;;;2.95;;
28431;SDS011;15664;51.302;7.744;2023-03-24T02:15:54;8.07;;;3.40;;
28431;SDS011;15664;51.302;7.744;2023-03-24T02:19:18;6.57;;;3.15;;
28431;SDS011;15664;51.302;7.744;2023-03-24T02:24:17;8.02;;;3.22;;
28431;SDS011;15664;51.302;7.744;2023-03-24T02:27:02;6.77;;;3.30;;
28431;SDS011;15664;51.302;7.744;2023-03-24T02:29:48;9.50;;;3.67;;
28431;SDS011;15664;51.302;7.744;2023-03-24T02:32:47;7.85;;;3.42;;
28431;SDS011;15664;51.302;7.744;2023-03-24T02:38:56;8.98;;;3.80;;
28431;SDS011;15664;51.302;7.744;2023-03-24T02:41:46;8.47;;;3.50;;
28431;SDS011;15664;51.302;7.744;2023-03-24T02:44:20;9.02;;;3.58;;
28431;SDS011;15664;51.302;7.744;2023-03-24T02:49:36;7.60;;;3.80;;
28431;SDS011;15664;51.302;7.744;2023-03-24T02:52:17;7.72;;;3.67;;
28431;SDS011;15664;51.302;7.744;2023-03-24T02:54:58;9.03;;;4.00;;
28431;SDS011;15664;51.302;7.744;2023-03-24T02:57:33;9.35;;;4.28;;
28431;SDS011;15664;51.302;7.744;2023-03-24T03:00:35;9.52;;;4.18;;
28431;SDS011;15664;51.302;7.744;2023-03-24T03:05:55;8.85;;;3.65;;
28431;SDS011;15664;51.302;7.744;2023-03-24T03:08:24;8.07;;;3.40;;
28431;SDS011;15664;51.302;7.744;2023-03-24T03:10:53;8.40;;;4.07;;
28431;SDS011;15664;51.302;7.744;2023-03-24T03:13:33;9.73;;;3.97;;
28431;SDS011;15664;51.302;7.744;2023-03-24T03:16:12;8.90;;;3.90;;
28431;SDS011;15664;51.302;7.744;2023-03-24T03:18:43;11.02;;;4.35;;
28431;SDS011;15664;51.302;7.744;2023-03-24T03:21:21;10.70;;;4.47;;
28431;SDS011;15664;51.302;7.744;2023-03-24T03:26:35;11.25;;;4.47;;
28431;SDS011;15664;51.302;7.744;2023-03-24T03:29:07;7.97;;;3.28;;
28431;SDS011;15664;51.302;7.744;2023-03-24T03:31:41;8.53;;;3.93;;
28431;SDS011;15664;51.302;7.744;2023-03-24T03:34:19;7.95;;;3.92;;
28431;SDS011;15664;51.302;7.744;2023-03-24T03:36:53;9.27;;;3.83;;
28431;SDS011;15664;51.302;7.744;2023-03-24T03:39:26;7.00;;;3.40;;
28431;SDS011;15664;51.302;7.744;2023-03-24T03:41:56;7.85;;;3.35;;
28431;SDS011;15664;51.302;7.744;2023-03-24T03:44:23;10.97;;;4.27;;
28431;SDS011;15664;51.302;7.744;2023-03-24T03:46:49;8.18;;;3.60;;
28431;SDS011;15664;51.302;7.744;2023-03-24T03:49:21;6.95;;;3.40;;
28431;SDS011;15664;51.302;7.744;2023-03-24T03:51:49;9.40;;;4.60;;
28431;SDS011;15664;51.302;7.744;2023-03-24T03:54:16;7.93;;;3.50;;
28431;SDS011;15664;51.302;7.744;2023-03-24T03:56:44;8.97;;;4.27;;
28431;SDS011;15664;51.302;7.744;2023-03-24T03:59:24;9.43;;;4.10;;
28431;SDS011;15664;51.302;7.744;2023-03-24T04:01:57;9.95;;;4.38;;
28431;SDS011;15664;51.302;7.744;2023-03-24T04:04:50;7.32;;;2.45;;
28431;SDS011;15664;51.302;7.744;2023-03-24T04:08:03;7.82;;;3.90;;
28431;SDS011;15664;51.302;7.744;2023-03-24T04:11:05;9.23;;;4.70;;
28431;SDS011;15664;51.302;7.744;2023-03-24T04:19:48;9.90;;;4.43;;
28431;SDS011;15664;51.302;7.744;2023-03-24T04:22:29;7.55;;;3.72;;
28431;SDS011;15664;51.302;7.744;2023-03-24T04:25:54;8.60;;;4.53;;
28431;SDS011;15664;51.302;7.744;2023-03-24T04:31:08;10.75;;;4.65;;
28431;SDS011;15664;51.302;7.744;2023-03-24T04:33:51;9.70;;;4.28;;
28431;SDS011;15664;51.302;7.744;2023-03-24T04:36:32;11.32;;;5.00;;
28431;SDS011;15664;51.302;7.744;2023-03-24T04:39:28;9.83;;;4.27;;
28431;SDS011;15664;51.302;7.744;2023-03-24T04:42:03;8.45;;;4.20;;
28431;SDS011;15664;51.302;7.744;2023-03-24T04:44:34;6.57;;;3.00;;
28431;SDS011;15664;51.302;7.744;2023-03-24T04:47:31;8.98;;;3.88;;
28431;SDS011;15664;51.302;7.744;2023-03-24T04:50:12;10.63;;;4.25;;
28431;SDS011;15664;51.302;7.744;2023-03-24T04:52:39;10.17;;;4.77;;
28431;SDS011;15664;51.302;7.744;2023-03-24T04:55:28;7.10;;;3.28;;
28431;SDS011;15664;51.302;7.744;2023-03-24T04:58:12;7.43;;;3.33;;
28431;SDS011;15664;51.302;7.744;2023-03-24T05:00:38;8.27;;;3.92;;
28431;SDS011;15664;51.302;7.744;2023-03-24T05:03:03;10.67;;;4.93;;
28431;SDS011;15664;51.302;7.744;2023-03-24T05:05:29;10.27;;;4.88;;
28431;SDS011;15664;51.302;7.744;2023-03-24T05:07:54;9.33;;;4.57;;
28431;SDS011;15664;51.302;7.744;2023-03-24T05:10:21;11.40;;;4.00;;
28431;SDS011;15664;51.302;7.744;2023-03-24T05:12:53;9.57;;;4.72;;
28431;SDS011;15664;51.302;7.744;2023-03-24T05:15:25;12.77;;;5.60;;
28431;SDS011;15664;51.302;7.744;2023-03-24T05:17:56;9.98;;;4.55;;
28431;SDS011;15664;51.302;7.744;2023-03-24T05:20:24;10.50;;;5.07;;
28431;SDS011;15664;51.302;7.744;2023-03-24T05:22:50;10.93;;;4.68;;
28431;SDS011;15664;51.302;7.744;2023-03-24T05:25:16;9.07;;;4.68;;
28431;SDS011;15664;51.302;7.744;2023-03-24T05:27:42;12.95;;;6.20;;
28431;SDS011;15664;51.302;7.744;2023-03-24T05:30:19;11.25;;;4.97;;
28431;SDS011;15664;51.302;7.744;2023-03-24T05:32:46;9.32;;;4.03;;
28431;SDS011;15664;51.302;7.744;2023-03-24T05:35:11;8.77;;;3.80;;
28431;SDS011;15664;51.302;7.744;2023-03-24T05:37:37;7.40;;;2.88;;
28431;SDS011;15664;51.302;7.744;2023-03-24T05:40:03;5.60;;;2.20;;
28431;SDS011;15664;51.302;7.744;2023-03-24T05:42:39;5.38;;;2.65;;
28431;SDS011;15664;51.302;7.744;2023-03-24T05:45:05;6.40;;;2.53;;
28431;SDS011;15664;51.302;7.744;2023-03-24T05:47:31;7.13;;;2.67;;
28431;SDS011;15664;51.302;7.744;2023-03-24T05:49:57;5.68;;;2.60;;
28431;SDS011;15664;51.302;7.744;2023-03-24T05:52:22;6.43;;;3.10;;
28431;SDS011;15664;51.302;7.744;2023-03-24T05:54:53;6.38;;;2.90;;
28431;SDS011;15664;51.302;7.744;2023-03-24T05:57:22;7.10;;;3.60;;
28431;SDS011;15664;51.302;7.744;2023-03-24T06:00:16;6.60;;;3.00;;
28431;SDS011;15664;51.302;7.744;2023-03-24T06:03:03;5.65;;;2.80;;
28431;SDS011;15664;51.302;7.744;2023-03-24T06:05:35;4.65;;;2.17;;
28431;SDS011;15664;51.302;7.744;2023-03-24T06:08:00;5.20;;;2.38;;
28431;SDS011;15664;51.302;7.744;2023-03-24T06:10:29;6.50;;;3.00;;
28431;SDS011;15664;51.302;7.744;2023-03-24T06:12:56;6.82;;;2.72;;
28431;SDS011;15664;51.302;7.744;2023-03-24T06:15:23;4.65;;;2.25;;
28431;SDS011;15664;51.302;7.744;2023-03-24T06:17:54;3.67;;;1.73;;
28431;SDS011;15664;51.302;7.744;2023-03-24T06:20:30;4.30;;;1.88;;
28431;SDS011;15664;51.302;7.744;2023-03-24T06:23:08;3.70;;;1.67;;
28431;SDS011;15664;51.302;7.744;2023-03-24T06:25:43;3.35;;;1.70;;
28431;SDS011;15664;51.302;7.744;2023-03-24T06:28:16;5.57;;;2.00;;
28431;SDS011;15664;51.302;7.744;2023-03-24T06:30:44;3.92;;;1.95;;
28431;SDS011;15664;51.302;7.744;2023-03-24T06:33:15;3.40;;;1.40;;
28431;SDS011;15664;51.302;7.744;2023-03-24T06:35:42;5.53;;;1.50;;
28431;SDS011;15664;51.302;7.744;2023-03-24T06:38:12;4.13;;;1.60;;
28431;SDS011;15664;51.302;7.744;2023-03-24T06:40:38;3.03;;;1.35;;
28431;SDS011;15664;51.302;7.744;2023-03-24T06:43:04;4.72;;;1.70;;
28431;SDS011;15664;51.302;7.744;2023-03-24T06:45:33;3.63;;;1.45;;
28431;SDS011;15664;51.302;7.744;2023-03-24T06:47:58;5.13;;;1.53;;
28431;SDS011;15664;51.302;7.744;2023-03-24T06:50:24;4.60;;;1.20;;
28431;SDS011;15664;51.302;7.744;2023-03-24T06:52:58;5.30;;;1.40;;
28431;SDS011;15664;51.302;7.744;2023-03-24T06:55:25;2.30;;;0.98;;
28431;SDS011;15664;51.302;7.744;2023-03-24T06:57:52;6.32;;;1.45;;
28431;SDS011;15664;51.302;7.744;2023-03-24T07:00:28;2.90;;;1.23;;
28431;SDS011;15664;51.302;7.744;2023-03-24T07:03:04;2.43;;;1.17;;
28431;SDS011;15664;51.302;7.744;2023-03-24T07:05:30;2.00;;;1.13;;
28431;SDS011;15664;51.302;7.744;2023-03-24T07:07:56;7.97;;;1.55;;
28431;SDS011;15664;51.302;7.744;2023-03-24T07:10:35;2.85;;;1.20;;
28431;SDS011;15664;51.302;7.744;2023-03-24T07:13:01;3.60;;;1.70;;
28431;SDS011;15664;51.302;7.744;2023-03-24T07:15:28;2.53;;;1.30;;
28431;SDS011;15664;51.302;7.744;2023-03-24T07:17:54;4.95;;;1.88;;
28431;SDS011;15664;51.302;7.744;2023-03-24T07:20:40;3.58;;;1.40;;
28431;SDS011;15664;51.302;7.744;2023-03-24T07:23:13;3.33;;;1.50;;
28431;SDS011;15664;51.302;7.744;2023-03-24T07:25:58;3.70;;;1.83;;
28431;SDS011;15664;51.302;7.744;2023-03-24T07:28:47;3.90;;;1.38;;
28431;SDS011;15664;51.302;7.744;2023-03-24T07:31:24;5.82;;;1.58;;
28431;SDS011;15664;51.302;7.744;2023-03-24T07:33:56;4.85;;;1.58;;
28431;SDS011;15664;51.302;7.744;2023-03-24T07:36:22;2.80;;;1.40;;
28431;SDS011;15664;51.302;7.744;2023-03-24T07:38:47;3.40;;;1.70;;
28431;SDS011;15664;51.302;7.744;2023-03-24T07:41:21;3.45;;;1.27;;
28431;SDS011;15664;51.302;7.744;2023-03-24T07:43:54;2.83;;;1.15;;
28431;SDS011;15664;51.302;7.744;2023-03-24T07:46:24;4.00;;;1.37;;
28431;SDS011;15664;51.302;7.744;2023-03-24T07:48:50;3.15;;;1.33;;
28431;SDS011;15664;51.302;7.744;2023-03-24T07:51:17;11.18;;;1.48;;
28431;SDS011;15664;51.302;7.744;2023-03-24T07:53:49;2.63;;;1.25;;
28431;SDS011;15664;51.302;7.744;2023-03-24T07:56:30;5.03;;;1.45;;
28431;SDS011;15664;51.302;7.744;2023-03-24T07:58:58;2.57;;;1.13;;
28431;SDS011;15664;51.302;7.744;2023-03-24T08:01:44;5.45;;;1.42;;
28431;SDS011;15664;51.302;7.744;2023-03-24T08:04:11;5.97;;;1.52;;
28431;SDS011;15664;51.302;7.744;2023-03-24T08:07:04;5.82;;;1.55;;
28431;SDS011;15664;51.302;7.744;2023-03-24T08:09:29;7.23;;;1.37;;
28431;SDS011;15664;51.302;7.744;2023-03-24T08:11:55;5.90;;;1.60;;
28431;SDS011;15664;51.302;7.744;2023-03-24T08:14:20;4.30;;;1.20;;
28431;SDS011;15664;51.302;7.744;2023-03-24T08:16:46;4.80;;;1.40;;
28431;SDS011;15664;51.302;7.744;2023-03-24T08:19:11;5.27;;;1.70;;
28431;SDS011;15664;51.302;7.744;2023-03-24T08:21:37;4.28;;;1.48;;
28431;SDS011;15664;51.302;7.744;2023-03-24T08:24:03;7.47;;;1.70;;
28431;SDS011;15664;51.302;7.744;2023-03-24T08:26:28;5.47;;;1.80;;
28431;SDS011;15664;51.302;7.744;2023-03-24T08:28:55;5.82;;;1.70;;
28431;SDS011;15664;51.302;7.744;2023-03-24T08:31:21;5.47;;;2.10;;
28431;SDS011;15664;51.302;7.744;2023-03-24T08:33:46;7.77;;;2.37;;
28431;SDS011;15664;51.302;7.744;2023-03-24T08:36:12;4.90;;;1.70;;
28431;SDS011;15664;51.302;7.744;2023-03-24T08:38:37;8.50;;;2.10;;
28431;SDS011;15664;51.302;7.744;2023-03-24T08:41:04;8.38;;;2.42;;
28431;SDS011;15664;51.302;7.744;2023-03-24T08:43:34;6.85;;;2.03;;
28431;SDS011;15664;51.302;7.744;2023-03-24T08:46:01;6.20;;;1.80;;
28431;SDS011;15664;51.302;7.744;2023-03-24T08:48:28;8.48;;;2.00;;
28431;SDS011;15664;51.302;7.744;2023-03-24T08:50:54;7.28;;;2.00;;
28431;SDS011;15664;51.302;7.744;2023-03-24T08:53:20;7.10;;;1.63;;
28431;SDS011;15664;51.302;7.744;2023-03-24T08:55:46;6.20;;;2.00;;
28431;SDS011;15664;51.302;7.744;2023-03-24T08:58:13;8.40;;;1.80;;
28431;SDS011;15664;51.302;7.744;2023-03-24T09:00:40;7.88;;;1.80;;
28431;SDS011;15664;51.302;7.744;2023-03-24T09:03:06;5.68;;;1.70;;
28431;SDS011;15664;51.302;7.744;2023-03-24T09:05:31;6.97;;;2.10;;
28431;SDS011;15664;51.302;7.744;2023-03-24T09:07:57;4.55;;;1.30;;
28431;SDS011;15664;51.302;7.744;2023-03-24T09:10:24;5.50;;;1.50;;
28431;SDS011;15664;51.302;7.744;2023-03-24T09:12:50;6.43;;;1.40;;
28431;SDS011;15664;51.302;7.744;2023-03-24T09:15:16;7.03;;;1.80;;
28431;SDS011;15664;51.302;7.744;2023-03-24T09:17:42;8.32;;;1.50;;
28431;SDS011;15664;51.302;7.744;2023-03-24T09:20:09;7.68;;;2.22;;
28431;SDS011;15664;51.302;7.744;2023-03-24T09:22:46;11.13;;;2.77;;
28431;SDS011;15664;51.302;7.744;2023-03-24T09:25:13;8.38;;;1.75;;
28431;SDS011;15664;51.302;7.744;2023-03-24T09:27:41;6.38;;;1.85;;
28431;SDS011;15664;51.302;7.744;2023-03-24T09:30:06;5.43;;;1.67;;
28431;SDS011;15664;51.302;7.744;2023-03-24T09:32:33;11.98;;;2.92;;
28431;SDS011;15664;51.302;7.744;2023-03-24T09:34:59;9.68;;;1.90;;
28431;SDS011;15664;51.302;7.744;2023-03-24T09:37:29;5.30;;;1.70;;
28431;SDS011;15664;51.302;7.744;2023-03-24T09:39:57;6.95;;;1.90;;
28431;SDS011;15664;51.302;7.744;2023-03-24T09:42:24;3.60;;;1.83;;
28431;SDS011;15664;51.302;7.744;2023-03-24T09:44:53;7.15;;;2.15;;
28431;SDS011;15664;51.302;7.744;2023-03-24T09:47:24;7.50;;;2.08;;
28431;SDS011;15664;51.302;7.744;2023-03-24T09:50:03;9.02;;;2.60;;
28431;SDS011;15664;51.302;7.744;2023-03-24T09:52:34;7.60;;;2.55;;
28431;SDS011;15664;51.302;7.744;2023-03-24T09:55:03;8.77;;;2.90;;
28431;SDS011;15664;51.302;7.744;2023-03-24T09:57:36;10.93;;;2.75;;
28431;SDS011;15664;51.302;7.744;2023-03-24T10:02:41;5.53;;;2.22;;
28431;SDS011;15664;51.302;7.744;2023-03-24T10:05:13;7.63;;;2.87;;
28431;SDS011;15664;51.302;7.744;2023-03-24T10:07:42;6.05;;;1.75;;
28431;SDS011;15664;51.302;7.744;2023-03-24T10:10:26;7.03;;;2.38;;
28431;SDS011;15664;51.302;7.744;2023-03-24T10:13:10;8.43;;;2.47;;
28431;SDS011;15664;51.302;7.744;2023-03-24T10:15:49;7.05;;;2.45;;
28431;SDS011;15664;51.302;7.744;2023-03-24T10:18:32;8.63;;;2.50;;
28431;SDS011;15664;51.302;7.744;2023-03-24T10:21:26;5.55;;;1.70;;
28431;SDS011;15664;51.302;7.744;2023-03-24T10:24:14;5.47;;;2.08;;
28431;SDS011;15664;51.302;7.744;2023-03-24T10:26:51;7.83;;;2.60;;
28431;SDS011;15664;51.302;7.744;2023-03-24T10:29:30;5.85;;;1.95;;
28431;SDS011;15664;51.302;7.744;2023-03-24T10:32:02;8.63;;;2.20;;
28431;SDS011;15664;51.302;7.744;2023-03-24T10:34:31;8.00;;;2.03;;
28431;SDS011;15664;51.302;7.744;2023-03-24T10:36:59;7.63;;;2.28;;
28431;SDS011;15664;51.302;7.744;2023-03-24T10:39:28;4.27;;;1.57;;
28431;SDS011;15664;51.302;7.744;2023-03-24T10:41:54;5.72;;;1.65;;
28431;SDS011;15664;51.302;7.744;2023-03-24T10:44:22;7.60;;;1.80;;
28431;SDS011;15664;51.302;7.744;2023-03-24T10:46:51;6.27;;;1.93;;
28431;SDS011;15664;51.302;7.744;2023-03-24T10:49:21;6.65;;;1.75;;
28431;SDS011;15664;51.302;7.744;2023-03-24T10:51:48;5.65;;;2.70;;
28431;SDS011;15664;51.302;7.744;2023-03-24T10:54:25;5.35;;;1.50;;
28431;SDS011;15664;51.302;7.744;2023-03-24T11:02:38;6.38;;;1.92;;
28431;SDS011;15664;51.302;7.744;2023-03-24T11:05:19;6.80;;;1.70;;
28431;SDS011;15664;51.302;7.744;2023-03-24T11:07:48;5.07;;;1.40;;
28431;SDS011;15664;51.302;7.744;2023-03-24T11:10:18;5.53;;;2.13;;
28431;SDS011;15664;51.302;7.744;2023-03-24T11:17:47;6.20;;;1.65;;
28431;SDS011;15664;51.302;7.744;2023-03-24T11:20:20;10.85;;;2.40;;
28431;SDS011;15664;51.302;7.744;2023-03-24T11:25:39;4.83;;;1.50;;
28431;SDS011;15664;51.302;7.744;2023-03-24T11:28:08;4.88;;;1.70;;
28431;SDS011;15664;51.302;7.744;2023-03-24T11:30:44;6.25;;;2.00;;
28431;SDS011;15664;51.302;7.744;2023-03-24T11:33:19;5.30;;;1.70;;
28431;SDS011;15664;51.302;7.744;2023-03-24T11:35:47;4.80;;;1.25;;
28431;SDS011;15664;51.302;7.744;2023-03-24T11:38:14;6.43;;;1.43;;
28431;SDS011;15664;51.302;7.744;2023-03-24T11:40:52;4.45;;;1.27;;
28431;SDS011;15664;51.302;7.744;2023-03-24T11:43:26;7.47;;;1.77;;
28431;SDS011;15664;51.302;7.744;2023-03-24T11:45:57;4.90;;;1.75;;
28431;SDS011;15664;51.302;7.744;2023-03-24T11:48:35;5.00;;;1.30;;
28431;SDS011;15664;51.302;7.744;2023-03-24T11:51:04;9.52;;;1.73;;
28431;SDS011;15664;51.302;7.744;2023-03-24T11:53:48;6.40;;;1.23;;
28431;SDS011;15664;51.302;7.744;2023-03-24T11:56:29;3.13;;;1.33;;
28431;SDS011;15664;51.302;7.744;2023-03-24T11:59:07;4.63;;;1.70;;
28431;SDS011;15664;51.302;7.744;2023-03-24T12:10:10;10.05;;;1.40;;
28431;SDS011;15664;51.302;7.744;2023-03-24T12:12:58;10.33;;;1.73;;
28431;SDS011;15664;51.302;7.744;2023-03-24T12:20:43;2.50;;;1.40;;
28431;SDS011;15664;51.302;7.744;2023-03-24T12:23:24;6.03;;;1.27;;
28431;SDS011;15664;51.302;7.744;2023-03-24T12:28:51;3.72;;;1.30;;
28431;SDS011;15664;51.302;7.744;2023-03-24T12:34:04;6.88;;;1.52;;
28431;SDS011;15664;51.302;7.744;2023-03-24T12:36:54;7.60;;;1.55;;
28431;SDS011;15664;51.302;7.744;2023-03-24T12:39:33;6.60;;;1.33;;
28431;SDS011;15664;51.302;7.744;2023-03-24T13:07:22;9.20;;;1.60;;
28431;SDS011;15664;51.302;7.744;2023-03-24T13:09:52;4.88;;;1.27;;
28431;SDS011;15664;51.302;7.744;2023-03-24T13:15:21;5.72;;;1.55;;
28431;SDS011;15664;51.302;7.744;2023-03-24T13:17:58;6.10;;;1.60;;
28431;SDS011;15664;51.302;7.744;2023-03-24T13:20:47;3.40;;;1.53;;
28431;SDS011;15664;51.302;7.744;2023-03-24T13:28:56;9.40;;;1.60;;
28431;SDS011;15664;51.302;7.744;2023-03-24T13:31:34;4.63;;;1.45;;
28431;SDS011;15664;51.302;7.744;2023-03-24T13:34:13;7.07;;;1.70;;
28431;SDS011;15664;51.302;7.744;2023-03-24T13:36:58;5.22;;;2.05;;
28431;SDS011;15664;51.302;7.744;2023-03-24T13:39:30;5.03;;;1.52;;
28431;SDS011;15664;51.302;7.744;2023-03-24T13:41:59;4.78;;;1.50;;
28431;SDS011;15664;51.302;7.744;2023-03-24T13:44:36;5.65;;;1.55;;
28431;SDS011;15664;51.302;7.744;2023-03-24T13:47:11;7.80;;;1.30;;
28431;SDS011;15664;51.302;7.744;2023-03-24T13:49:40;4.53;;;1.40;;
28431;SDS011;15664;51.302;7.744;2023-03-24T13:52:27;4.75;;;1.58;;
28431;SDS011;15664;51.302;7.744;2023-03-24T13:55:07;6.35;;;1.52;;
28431;SDS011;15664;51.302;7.744;2023-03-24T13:57:39;2.80;;;0.75;;
28431;SDS011;15664;51.302;7.744;2023-03-24T14:02:41;4.57;;;1.67;;
28431;SDS011;15664;51.302;7.744;2023-03-24T14:05:08;7.50;;;1.80;;
28431;SDS011;15664;51.302;7.744;2023-03-24T14:10:09;6.87;;;1.63;;
28431;SDS011;15664;51.302;7.744;2023-03-24T14:12:53;2.72;;;1.10;;
28431;SDS011;15664;51.302;7.744;2023-03-24T14:16:04;4.10;;;1.23;;
28431;SDS011;15664;51.302;7.744;2023-03-24T14:26:05;7.13;;;1.25;;
28431;SDS011;15664;51.302;7.744;2023-03-24T14:31:09;8.50;;;1.50;;
28431;SDS011;15664;51.302;7.744;2023-03-24T14:36:17;8.27;;;2.00;;
28431;SDS011;15664;51.302;7.744;2023-03-24T14:38:49;4.20;;;1.00;;
28431;SDS011;15664;51.302;7.744;2023-03-24T14:41:16;10.02;;;1.48;;
28431;SDS011;15664;51.302;7.744;2023-03-24T14:43:52;2.87;;;0.93;;
28431;SDS011;15664;51.302;7.744;2023-03-24T14:49:05;3.97;;;1.20;;
28431;SDS011;15664;51.302;7.744;2023-03-24T14:54:34;5.43;;;1.65;;
28431;SDS011;15664;51.302;7.744;2023-03-24T14:57:03;5.60;;;1.63;;
28431;SDS011;15664;51.302;7.744;2023-03-24T14:59:36;3.90;;;1.15;;
28431;SDS011;15664;51.302;7.744;2023-03-24T15:02:15;4.57;;;1.03;;
28431;SDS011;15664;51.302;7.744;2023-03-24T15:07:44;8.05;;;2.78;;
28431;SDS011;15664;51.302;7.744;2023-03-24T15:10:21;3.67;;;1.00;;
28431;SDS011;15664;51.302;7.744;2023-03-24T15:12:47;6.60;;;1.23;;
28431;SDS011;15664;51.302;7.744;2023-03-24T15:15:17;3.95;;;1.10;;
28431;SDS011;15664;51.302;7.744;2023-03-24T15:17:46;5.10;;;1.30;;
28431;SDS011;15664;51.302;7.744;2023-03-24T15:22:51;4.97;;;0.80;;
28431;SDS011;15664;51.302;7.744;2023-03-24T15:25:23;3.38;;;1.00;;
28431;SDS011;15664;51.302;7.744;2023-03-24T15:27:51;2.08;;;0.75;;
28431;SDS011;15664;51.302;7.744;2023-03-24T15:30:16;4.00;;;1.17;;
28431;SDS011;15664;51.302;7.744;2023-03-24T15:32:42;4.28;;;1.00;;
28431;SDS011;15664;51.302;7.744;2023-03-24T15:35:14;3.10;;;1.00;;
28431;SDS011;15664;51.302;7.744;2023-03-24T15:37:44;4.03;;;1.08;;
28431;SDS011;15664;51.302;7.744;2023-03-24T15:42:49;5.35;;;1.00;;
28431;SDS011;15664;51.302;7.744;2023-03-24T15:45:22;5.37;;;1.37;;
28431;SDS011;15664;51.302;7.744;2023-03-24T15:47:51;3.25;;;1.00;;
28431;SDS011;15664;51.302;7.744;2023-03-24T15:50:28;3.53;;;1.08;;
28431;SDS011;15664;51.302;7.744;2023-03-24T15:53:00;4.22;;;1.10;;
28431;SDS011;15664;51.302;7.744;2023-03-24T15:55:34;3.63;;;1.00;;
28431;SDS011;15664;51.302;7.744;2023-03-24T15:58:15;2.60;;;0.88;;
28431;SDS011;15664;51.302;7.744;2023-03-24T16:00:42;5.13;;;1.42;;
28431;SDS011;15664;51.302;7.744;2023-03-24T16:03:09;4.00;;;1.13;;
28431;SDS011;15664;51.302;7.744;2023-03-24T16:05:44;2.80;;;1.23;;
28431;SDS011;15664;51.302;7.744;2023-03-24T16:08:45;3.90;;;1.27;;
28431;SDS011;15664;51.302;7.744;2023-03-24T16:11:07;2.45;;;0.88;;
28431;SDS011;15664;51.302;7.744;2023-03-24T16:13:37;2.10;;;0.80;;
28431;SDS011;15664;51.302;7.744;2023-03-24T16:18:39;1.58;;;0.82;;
28431;SDS011;15664;51.302;7.744;2023-03-24T16:23:41;3.03;;;1.02;;
28431;SDS011;15664;51.302;7.744;2023-03-24T16:26:11;2.35;;;0.80;;
28431;SDS011;15664;51.302;7.744;2023-03-24T16:28:40;4.63;;;1.30;;
28431;SDS011;15664;51.302;7.744;2023-03-24T16:31:06;3.97;;;1.00;;
28431;SDS011;15664;51.302;7.744;2023-03-24T16:33:32;4.32;;;1.25;;
28431;SDS011;15664;51.302;7.744;2023-03-24T16:35:58;7.53;;;1.10;;
28431;SDS011;15664;51.302;7.744;2023-03-24T16:38:25;2.75;;;0.93;;
28431;SDS011;15664;51.302;7.744;2023-03-24T16:40:52;4.30;;;0.90;;
28431;SDS011;15664;51.302;7.744;2023-03-24T16:43:19;6.20;;;1.38;;
28431;SDS011;15664;51.302;7.744;2023-03-24T16:45:46;3.72;;;1.02;;
28431;SDS011;15664;51.302;7.744;2023-03-24T16:48:12;3.40;;;0.90;;
28431;SDS011;15664;51.302;7.744;2023-03-24T16:50:45;1.80;;;0.77;;
28431;SDS011;15664;51.302;7.744;2023-03-24T16:53:14;2.08;;;0.95;;
28431;SDS011;15664;51.302;7.744;2023-03-24T16:55:40;1.45;;;0.70;;
28431;SDS011;15664;51.302;7.744;2023-03-24T16:58:06;2.88;;;1.00;;
28431;SDS011;15664;51.302;7.744;2023-03-24T17:00:32;3.60;;;1.30;;
28431;SDS011;15664;51.302;7.744;2023-03-24T17:03:02;3.25;;;1.20;;
28431;SDS011;15664;51.302;7.744;2023-03-24T17:05:29;2.80;;;1.42;;
28431;SDS011;15664;51.302;7.744;2023-03-24T17:08:01;4.72;;;1.40;;
28431;SDS011;15664;51.302;7.744;2023-03-24T17:10:26;2.20;;;0.90;;
28431;SDS011;15664;51.302;7.744;2023-03-24T17:12:53;4.07;;;1.17;;
28431;SDS011;15664;51.302;7.744;2023-03-24T17:15:24;2.80;;;1.00;;
28431;SDS011;15664;51.302;7.744;2023-03-24T17:17:50;2.83;;;0.90;;
28431;SDS011;15664;51.302;7.744;2023-03-24T17:20:16;2.20;;;1.00;;
28431;SDS011;15664;51.302;7.744;2023-03-24T17:22:43;2.25;;;0.77;;
28431;SDS011;15664;51.302;7.744;2023-03-24T17:25:11;1.37;;;0.70;;
28431;SDS011;15664;51.302;7.744;2023-03-24T17:27:37;1.75;;;0.73;;
28431;SDS011;15664;51.302;7.744;2023-03-24T17:30:04;1.38;;;0.80;;